Time;durP1;ratioP1;P1;durP2;ratioP2;P2;SDS_P1;SDS_P2;PMS_P1;PMS_P2;Temp;Humidity;BMP_temperature;BMP_pressure;BME280_temperature;BME280_humidity;BME280_pressure;Samples;Min_cycle;Max_cycle;Signal;HPM_P1;HPM_P2
2023/01/11 00:01:56;;;;;;;7.10;5.45;;;7.90;99.90;;;;;;5000082;28;20135;-82
2023/01/11 00:04:28;;;;;;;6.68;5.70;;;7.90;99.90;;;;;;5016351;28;20042;-84
2023/01/11 00:06:54;;;;;;;7.13;5.55;;;7.90;99.90;;;;;;5017324;28;20098;-87
2023/01/11 00:09:20;;;;;;;9.38;5.93;;;7.90;99.90;;;;;;5016404;28;20085;-84
2023/01/11 00:11:46;;;;;;;6.07;4.90;;;8.00;99.90;;;;;;5000159;28;20083;-85
2023/01/11 00:14:12;;;;;;;8.82;5.20;;;8.00;99.90;;;;;;5016325;28;20099;-84
2023/01/11 00:16:38;;;;;;;7.10;5.43;;;8.00;99.90;;;;;;5000186;28;20093;-82
2023/01/11 00:19:04;;;;;;;7.75;5.55;;;9.00;99.90;;;;;;5033663;28;20076;-85
2023/01/11 00:21:29;;;;;;;6.38;5.18;;;8.10;99.90;;;;;;5016702;28;20049;-84
2023/01/11 00:23:55;;;;;;;6.63;5.57;;;8.10;99.90;;;;;;5016319;28;20501;-84
2023/01/11 00:26:21;;;;;;;6.22;5.15;;;8.10;99.90;;;;;;5033902;28;20045;-83
2023/01/11 00:28:50;;;;;;;7.32;5.30;;;8.10;99.90;;;;;;5004147;28;20470;-86
2023/01/11 00:31:16;;;;;;;6.88;5.47;;;8.10;99.90;;;;;;4999681;28;20042;-83
2023/01/11 00:33:41;;;;;;;6.27;5.47;;;8.10;99.90;;;;;;5016108;28;20393;-85
2023/01/11 00:36:08;;;;;;;7.75;5.72;;;8.60;99.90;;;;;;4999780;28;20136;-86
2023/01/11 00:38:43;;;;;;;6.17;5.37;;;8.20;99.90;;;;;;5015994;28;20053;-84
2023/01/11 00:49:23;;;;;;;6.72;4.43;;;8.30;99.90;;;;;;5015844;28;20057;-85
2023/01/11 00:51:49;;;;;;;6.50;5.55;;;8.40;99.90;;;;;;5016010;28;20048;-85
2023/01/11 00:54:15;;;;;;;6.85;5.95;;;8.40;99.90;;;;;;5015950;28;20111;-86
2023/01/11 00:56:40;;;;;;;5.47;4.50;;;8.40;99.90;;;;;;5033430;28;20049;-86
2023/01/11 00:59:06;;;;;;;9.23;5.07;;;8.60;99.90;;;;;;5015753;28;20406;-86
2023/01/11 01:01:32;;;;;;;6.75;4.85;;;8.50;99.90;;;;;;4999858;28;20394;-84
2023/01/11 01:04:01;;;;;;;6.83;5.20;;;8.50;99.90;;;;;;5016877;28;20041;-84
2023/01/11 01:06:27;;;;;;;8.18;5.03;;;8.50;99.90;;;;;;5000817;28;20053;-86
2023/01/11 01:08:53;;;;;;;6.90;4.97;;;8.50;99.90;;;;;;5000644;28;20057;-87
2023/01/11 01:11:19;;;;;;;9.00;4.67;;;8.60;99.90;;;;;;5016420;28;20041;-86
2023/01/11 01:16:31;;;;;;;5.65;4.75;;;8.60;99.90;;;;;;5020215;28;20045;-86
2023/01/11 01:18:59;;;;;;;;;;;8.60;99.90;;;;;;5037546;28;20049;-84
2023/01/11 01:21:26;;;;;;;9.82;5.60;;;8.60;99.90;;;;;;5019376;28;19968;-85
2023/01/11 01:23:52;;;;;;;7.97;4.82;;;8.60;99.90;;;;;;5019281;28;20116;-84
2023/01/11 01:26:18;;;;;;;6.20;4.75;;;8.70;99.90;;;;;;5019684;28;20080;-84
2023/01/11 01:28:44;;;;;;;8.63;5.15;;;8.70;99.90;;;;;;5023469;28;20045;-83
2023/01/11 01:31:10;;;;;;;5.97;5.38;;;8.70;99.90;;;;;;5004872;28;20100;-84
2023/01/11 01:33:35;;;;;;;6.45;4.43;;;8.60;99.90;;;;;;5003991;28;20045;-86
2023/01/11 01:36:02;;;;;;;5.22;4.70;;;8.70;99.90;;;;;;5019968;28;20075;-83
2023/01/11 01:38:28;;;;;;;5.60;4.75;;;8.70;99.90;;;;;;5003604;28;20108;-85
2023/01/11 01:40:55;;;;;;;8.93;5.28;;;8.90;99.90;;;;;;5020258;28;20049;-87
2023/01/11 01:43:22;;;;;;;5.88;4.97;;;8.80;99.90;;;;;;5003667;28;20401;-85
2023/01/11 01:45:51;;;;;;;7.35;5.10;;;8.80;99.90;;;;;;5003439;28;20042;-85
2023/01/11 01:48:21;;;;;;;6.00;5.13;;;8.80;99.90;;;;;;5003089;28;20041;-85
2023/01/11 01:50:55;;;;;;;5.63;4.63;;;8.80;99.90;;;;;;5003607;28;20045;-85
2023/01/11 01:53:35;;;;;;;6.47;4.82;;;8.80;99.90;;;;;;5002886;28;20038;-84
2023/01/11 01:56:05;;;;;;;6.55;5.47;;;8.80;99.90;;;;;;5003273;28;20088;-84
2023/01/11 01:58:39;;;;;;;5.80;4.75;;;8.80;99.90;;;;;;5019488;28;20048;-84
2023/01/11 02:01:48;;;;;;;6.55;4.88;;;8.80;99.90;;;;;;5002706;28;20049;-83
2023/01/11 02:03:54;;;;;;;8.15;4.97;;;8.90;99.90;;;;;;5010704;28;20045;-86
2023/01/11 02:06:21;;;;;;;6.38;4.95;;;8.90;99.90;;;;;;5002499;28;20052;-85
2023/01/11 02:08:52;;;;;;;;;;;8.90;99.90;;;;;;5019096;28;20092;-84
2023/01/11 02:11:29;;;;;;;6.10;4.90;;;8.90;99.90;;;;;;5002337;28;19973;-86
2023/01/11 02:13:59;;;;;;;;;;;8.90;99.90;;;;;;5018835;28;20049;-85
2023/01/11 02:16:25;;;;;;;8.00;5.10;;;8.90;99.90;;;;;;5018111;28;19976;-88
2023/01/11 02:18:52;;;;;;;7.35;5.03;;;9.00;99.90;;;;;;5018377;28;20080;-87
2023/01/11 02:21:29;;;;;;;7.40;4.80;;;8.90;99.90;;;;;;5035966;28;20068;-85
2023/01/11 02:24:18;;;;;;;8.48;4.88;;;9.00;99.90;;;;;;5002318;28;20057;-87
2023/01/11 02:27:02;;;;;;;7.45;5.35;;;9.00;99.90;;;;;;5035814;28;20045;-84
2023/01/11 02:30:12;;;;;;;7.88;5.00;;;9.00;99.90;;;;;;5019218;28;20136;-85
2023/01/11 02:32:48;;;;;;;6.95;4.88;;;9.00;99.90;;;;;;5025298;28;20045;-85
2023/01/11 02:35:41;;;;;;;8.02;4.82;;;9.00;99.90;;;;;;5018333;28;20386;-86
2023/01/11 02:38:28;;;;;;;7.78;5.45;;;9.00;99.90;;;;;;4956965;28;20069;-85
2023/01/11 02:41:17;;;;;;;7.75;5.50;;;9.10;99.90;;;;;;5017816;28;20146;-86
2023/01/11 02:46:59;;;;;;;6.88;4.30;;;9.60;99.90;;;;;;5018048;28;20057;-86
2023/01/11 02:49:41;;;;;;;5.93;4.60;;;9.10;99.90;;;;;;5018027;28;20049;-85
2023/01/11 02:52:16;;;;;;;6.55;4.20;;;9.20;99.90;;;;;;5002191;28;20046;-85
2023/01/11 02:54:44;;;;;;;7.03;4.10;;;9.20;99.90;;;;;;5035597;28;20042;-86
2023/01/11 02:57:11;;;;;;;7.05;4.45;;;9.20;99.90;;;;;;5017460;28;20101;-85
2023/01/11 02:59:38;;;;;;;8.23;3.88;;;9.20;99.90;;;;;;5017505;28;20049;-86
2023/01/11 03:02:04;;;;;;;5.63;3.80;;;9.30;99.90;;;;;;5017329;28;20042;-85
2023/01/11 03:04:30;;;;;;;5.60;4.00;;;9.40;99.90;;;;;;5017466;28;20045;-85
2023/01/11 03:07:20;;;;;;;8.20;3.80;;;9.30;99.90;;;;;;5001032;28;20049;-86
2023/01/11 03:10:00;;;;;;;5.13;3.70;;;10.20;99.90;;;;;;5001495;28;20136;-85
2023/01/11 03:13:00;;;;;;;5.57;3.70;;;9.40;99.90;;;;;;5001165;28;20099;-86
2023/01/11 03:15:48;;;;;;;3.92;3.17;;;9.40;99.90;;;;;;5001240;28;20049;-85
2023/01/11 03:18:32;;;;;;;6.55;3.40;;;9.40;99.90;;;;;;5035174;28;20114;-85
2023/01/11 03:21:20;;;;;;;5.95;3.50;;;9.40;99.90;;;;;;5017259;28;20049;-84
2023/01/11 03:24:04;;;;;;;4.90;3.28;;;9.40;99.90;;;;;;5034679;28;20057;-84
2023/01/11 03:26:44;;;;;;;5.85;3.35;;;9.40;99.90;;;;;;5034651;28;20053;-84
2023/01/11 03:29:19;;;;;;;3.58;3.08;;;9.50;99.90;;;;;;5034799;28;20060;-85
2023/01/11 03:32:41;;;;;;;3.47;2.97;;;9.50;99.90;;;;;;5034521;28;20081;-85
2023/01/11 03:35:12;;;;;;;5.07;3.45;;;9.50;99.90;;;;;;5032175;28;20049;-85
2023/01/11 03:37:52;;;;;;;4.22;3.00;;;9.70;99.90;;;;;;5000279;28;20191;-83
2023/01/11 03:40:32;;;;;;;4.93;3.15;;;9.50;99.90;;;;;;5017220;28;20523;-85
2023/01/11 03:43:11;;;;;;;5.78;3.35;;;9.90;99.90;;;;;;5017404;28;20057;-85
2023/01/11 03:46:09;;;;;;;5.25;3.45;;;9.60;99.90;;;;;;5000727;28;20056;-86
2023/01/11 03:49:04;;;;;;;7.53;3.75;;;9.60;99.90;;;;;;4999957;28;20061;-85
2023/01/11 03:51:34;;;;;;;4.10;3.42;;;9.60;99.90;;;;;;5030084;28;20085;-85
2023/01/11 03:54:03;;;;;;;4.05;3.40;;;10.20;99.90;;;;;;5016644;28;20394;-85
2023/01/11 03:56:37;;;;;;;4.15;3.30;;;9.60;99.90;;;;;;4999938;28;20057;-86
2023/01/11 03:59:03;;;;;;;4.57;3.00;;;9.60;99.90;;;;;;5016865;28;20056;-83
2023/01/11 04:01:28;;;;;;;4.30;3.22;;;9.60;99.90;;;;;;5016251;28;20045;-85
2023/01/11 04:03:54;;;;;;;4.85;3.42;;;9.60;99.90;;;;;;5016843;28;20132;-85
2023/01/11 04:06:21;;;;;;;3.97;3.38;;;9.60;99.90;;;;;;5034317;28;20088;-84
2023/01/11 04:08:46;;;;;;;4.25;3.42;;;9.70;99.90;;;;;;5000600;28;20060;-85
2023/01/11 04:11:12;;;;;;;4.60;3.45;;;9.60;99.90;;;;;;5034173;28;20041;-85
2023/01/11 04:13:38;;;;;;;4.20;3.45;;;9.70;99.90;;;;;;5016174;28;20042;-85
2023/01/11 04:16:03;;;;;;;4.10;3.40;;;9.70;99.90;;;;;;5033676;28;20053;-85
2023/01/11 04:18:29;;;;;;;3.72;3.10;;;9.70;99.90;;;;;;5000083;28;20054;-85
2023/01/11 04:20:55;;;;;;;6.68;3.45;;;9.70;99.90;;;;;;5016539;28;20486;-85
2023/01/11 04:23:20;;;;;;;4.50;3.28;;;9.70;99.90;;;;;;5016186;28;20080;-84
2023/01/11 04:25:46;;;;;;;3.60;3.03;;;9.70;99.90;;;;;;5016370;28;20077;-85
2023/01/11 04:28:12;;;;;;;4.18;3.33;;;9.80;99.90;;;;;;5016328;28;20049;-85
2023/01/11 04:30:37;;;;;;;4.90;3.75;;;9.80;99.90;;;;;;5000103;28;20052;-85
2023/01/11 04:33:03;;;;;;;5.35;3.33;;;9.80;99.90;;;;;;5016357;28;20516;-85
2023/01/11 04:35:29;;;;;;;4.30;3.30;;;9.80;99.90;;;;;;5023607;28;20041;-85
2023/01/11 04:37:56;;;;;;;3.17;2.60;;;9.80;99.90;;;;;;4999882;28;20469;-85
2023/01/11 04:40:22;;;;;;;;;;;10.10;99.90;;;;;;5016515;28;20398;-85
2023/01/11 04:42:47;;;;;;;4.25;2.90;;;10.30;99.90;;;;;;4999823;28;19975;-86
2023/01/11 04:45:13;;;;;;;3.10;2.70;;;9.90;99.90;;;;;;5016763;28;20049;-84
2023/01/11 04:47:39;;;;;;;3.20;2.50;;;9.90;99.90;;;;;;5000060;28;20489;-84
2023/01/11 04:50:05;;;;;;;2.95;2.58;;;9.90;99.90;;;;;;5003725;28;20069;-86
2023/01/11 04:52:31;;;;;;;3.33;2.38;;;9.90;99.90;;;;;;5019907;28;20461;-85
2023/01/11 04:54:56;;;;;;;2.95;2.50;;;9.80;99.90;;;;;;5003730;28;20083;-84
2023/01/11 04:57:24;;;;;;;3.25;2.60;;;9.90;99.90;;;;;;5037389;28;20053;-86
2023/01/11 04:59:49;;;;;;;3.47;2.45;;;9.90;99.90;;;;;;5003766;28;20093;-86
2023/01/11 05:02:15;;;;;;;3.67;2.70;;;9.90;99.90;;;;;;5037280;28;20045;-85
2023/01/11 05:04:41;;;;;;;3.70;2.53;;;10.30;99.90;;;;;;5019688;28;20124;-85
2023/01/11 05:07:07;;;;;;;3.10;2.30;;;9.60;99.90;;;;;;5019822;28;20133;-85
2023/01/11 05:09:33;;;;;;;3.20;2.42;;;10.40;99.90;;;;;;5019682;28;20485;-84
2023/01/11 05:11:59;;;;;;;2.90;2.33;;;10.00;99.90;;;;;;5019139;28;20136;-86
2023/01/11 05:14:24;;;;;;;3.17;2.67;;;10.00;99.90;;;;;;5019877;28;20110;-84
2023/01/11 05:16:50;;;;;;;3.22;2.67;;;10.00;99.90;;;;;;5004041;28;20049;-85
2023/01/11 05:19:16;;;;;;;4.80;3.00;;;10.00;99.90;;;;;;5003638;28;20085;-84
2023/01/11 05:21:41;;;;;;;5.03;2.97;;;10.10;99.90;;;;;;5037128;28;20064;-85
2023/01/11 05:24:12;;;;;;;8.73;4.55;;;10.10;99.90;;;;;;5019516;28;20120;-86
2023/01/11 05:26:40;;;;;;;5.90;3.03;;;10.00;99.90;;;;;;5036650;28;20045;-85
2023/01/11 05:29:08;;;;;;;5.63;3.28;;;10.10;99.90;;;;;;5036553;28;20079;-86
2023/01/11 05:31:36;;;;;;;6.10;3.90;;;10.10;99.90;;;;;;5019103;28;20091;-86
2023/01/11 05:34:02;;;;;;;7.47;3.58;;;10.10;99.90;;;;;;5019190;28;20445;-84
2023/01/11 05:36:27;;;;;;;8.23;5.43;;;10.10;99.90;;;;;;5007686;28;20049;-83
2023/01/11 05:38:55;;;;;;;9.85;4.65;;;10.10;99.90;;;;;;5022007;28;20184;-84
2023/01/11 05:41:22;;;;;;;5.72;3.75;;;10.10;99.90;;;;;;5019430;28;20048;-85
2023/01/11 05:46:35;;;;;;;10.43;4.78;;;10.30;99.90;;;;;;5019285;28;20057;-85
2023/01/11 05:49:02;;;;;;;9.63;4.57;;;10.40;99.90;;;;;;5036774;28;20045;-84
2023/01/11 05:51:31;;;;;;;8.63;4.67;;;10.20;99.90;;;;;;5018766;28;20390;-86
2023/01/11 05:53:58;;;;;;;13.27;5.10;;;10.20;99.90;;;;;;5019440;28;20041;-83
2023/01/11 05:56:24;;;;;;;9.98;4.30;;;10.20;99.90;;;;;;5036454;28;20049;-83
2023/01/11 05:58:50;;;;;;;7.65;4.38;;;10.20;99.90;;;;;;5035931;28;20128;-84
2023/01/11 06:01:18;;;;;;;12.25;4.78;;;10.80;99.90;;;;;;5018852;28;20092;-83
2023/01/11 06:03:44;;;;;;;10.77;4.88;;;10.30;99.90;;;;;;5036166;28;20053;-84
2023/01/11 06:06:11;;;;;;;11.30;4.40;;;10.30;99.90;;;;;;5018522;28;20045;-83
2023/01/11 06:08:36;;;;;;;13.25;4.55;;;10.20;99.90;;;;;;5036241;28;20085;-82
2023/01/11 06:11:02;;;;;;;12.27;4.88;;;10.20;99.90;;;;;;5036022;28;20559;-88
2023/01/11 06:13:28;;;;;;;10.02;5.00;;;10.20;99.90;;;;;;5002465;28;20539;-82
2023/01/11 06:15:59;;;;;;;17.13;6.15;;;10.80;99.90;;;;;;5036886;28;20084;-86
2023/01/11 06:18:26;;;;;;;11.18;4.82;;;10.70;99.90;;;;;;5019028;28;20045;-85
2023/01/11 06:20:53;;;;;;;13.40;4.57;;;10.20;99.90;;;;;;5002739;28;20050;-85
2023/01/11 06:23:19;;;;;;;;;;;10.30;99.90;;;;;;5019424;28;20540;-83
2023/01/11 06:25:45;;;;;;;16.80;5.32;;;10.30;99.90;;;;;;5003518;28;19921;-83
2023/01/11 06:28:11;;;;;;;18.65;4.80;;;10.80;99.90;;;;;;5002922;28;20056;-85
2023/01/11 06:30:37;;;;;;;19.83;4.73;;;10.20;99.90;;;;;;5018131;28;20077;-83
2023/01/11 06:33:06;;;;;;;17.98;5.05;;;10.20;99.90;;;;;;5018483;28;20053;-88
2023/01/11 06:35:40;;;;;;;14.05;3.83;;;10.10;99.90;;;;;;5016781;28;20394;-84
2023/01/11 06:38:08;;;;;;;16.15;4.43;;;10.20;99.90;;;;;;4999108;28;20478;-82
2023/01/11 06:40:35;;;;;;;18.63;4.20;;;10.10;99.90;;;;;;4995415;28;20050;-83
2023/01/11 06:43:01;;;;;;;16.80;3.90;;;10.10;99.90;;;;;;4986277;28;20552;-81
2023/01/11 06:45:26;;;;;;;18.33;3.97;;;10.00;99.90;;;;;;4978599;28;20042;-86
2023/01/11 06:47:52;;;;;;;14.82;3.55;;;10.00;99.90;;;;;;4980549;28;20039;-86
2023/01/11 06:50:19;;;;;;;16.77;3.88;;;9.90;99.90;;;;;;4981132;28;20042;-89
2023/01/11 06:52:55;;;;;;;23.75;4.63;;;10.40;99.90;;;;;;4997918;28;20122;-87
2023/01/11 06:55:22;;;;;;;20.55;3.75;;;9.90;99.90;;;;;;4982537;28;20042;-84
2023/01/11 06:57:47;;;;;;;20.90;3.75;;;10.70;99.90;;;;;;5008502;28;20413;-89
2023/01/11 07:00:14;;;;;;;15.25;3.53;;;9.90;99.90;;;;;;4994670;28;20042;-87
2023/01/11 07:02:40;;;;;;;;;;;9.80;99.90;;;;;;4979057;28;20053;-85
2023/01/11 07:05:06;;;;;;;20.45;3.30;;;9.80;99.90;;;;;;4962590;28;20020;-88
2023/01/11 07:07:31;;;;;;;21.55;3.58;;;9.80;99.90;;;;;;4999448;28;20045;-81
2023/01/11 07:10:00;;;;;;;26.27;5.07;;;9.80;99.90;;;;;;4997254;28;20052;-85
2023/01/11 07:12:26;;;;;;;21.77;3.60;;;9.80;99.90;;;;;;4980650;28;20060;-82
2023/01/11 07:14:52;;;;;;;21.58;3.63;;;9.80;99.90;;;;;;5018333;28;20395;-83
2023/01/11 07:17:17;;;;;;;24.48;3.97;;;10.00;99.90;;;;;;4985910;28;20066;-84
2023/01/11 07:19:43;;;;;;;22.48;3.75;;;9.70;99.90;;;;;;5001390;28;20046;-84
2023/01/11 07:22:08;;;;;;;24.08;4.50;;;9.70;99.90;;;;;;5018532;28;20568;-85
2023/01/11 07:24:34;;;;;;;20.63;3.63;;;9.70;99.90;;;;;;4984904;28;20474;-85
2023/01/11 07:27:01;;;;;;;24.58;4.78;;;10.00;99.90;;;;;;5000792;28;20041;-84
2023/01/11 07:29:27;;;;;;;25.50;3.97;;;9.70;99.90;;;;;;5016492;28;20054;-85
2023/01/11 07:31:53;;;;;;;15.75;4.07;;;9.70;99.90;;;;;;4981000;28;20128;-84
2023/01/11 07:34:19;;;;;;;21.45;3.72;;;9.70;99.90;;;;;;4998147;28;20153;-85
2023/01/11 07:36:44;;;;;;;19.83;3.78;;;9.60;99.90;;;;;;5007905;28;20049;-84
2023/01/11 07:39:10;;;;;;;18.58;4.03;;;9.90;99.90;;;;;;5016721;28;20045;-84
2023/01/11 07:44:20;;;;;;;21.08;4.18;;;9.60;99.90;;;;;;5016940;28;20049;-86
2023/01/11 07:46:45;;;;;;;22.02;4.60;;;9.60;99.90;;;;;;5017008;28;20050;-84
2023/01/11 07:49:11;;;;;;;23.35;4.28;;;9.60;99.90;;;;;;5016999;28;20041;-85
2023/01/11 07:51:37;;;;;;;23.20;3.97;;;9.70;99.90;;;;;;5034347;28;20528;-85
2023/01/11 07:54:02;;;;;;;24.70;4.20;;;9.60;99.90;;;;;;5000626;28;20084;-85
2023/01/11 07:56:29;;;;;;;19.13;3.92;;;9.60;99.90;;;;;;5016673;28;20053;-83
2023/01/11 07:58:55;;;;;;;20.05;3.95;;;9.70;99.90;;;;;;5033892;28;20091;-85
2023/01/11 08:01:21;;;;;;;17.33;4.40;;;9.60;99.90;;;;;;5016838;28;20049;-84
2023/01/11 08:03:47;;;;;;;30.30;5.35;;;9.70;99.90;;;;;;5016885;28;20075;-84
2023/01/11 08:06:15;;;;;;;20.10;4.40;;;9.70;99.90;;;;;;5000002;28;20045;-84
2023/01/11 08:08:41;;;;;;;23.25;4.35;;;10.20;99.90;;;;;;5033846;28;20086;-84
2023/01/11 08:16:35;;;;;;;21.85;4.65;;;9.80;99.90;;;;;;5033786;28;20042;-84
2023/01/11 08:19:01;;;;;;;20.92;4.35;;;10.00;99.90;;;;;;5016196;28;20083;-84
2023/01/11 08:21:27;;;;;;;22.80;5.15;;;10.50;99.90;;;;;;4999493;28;20482;-85
2023/01/11 08:23:54;;;;;;;16.60;3.55;;;9.80;99.90;;;;;;5016245;28;20041;-84
2023/01/11 08:26:20;;;;;;;16.98;3.90;;;10.10;99.90;;;;;;5016019;28;20045;-85
2023/01/11 08:28:46;;;;;;;16.75;3.30;;;9.80;99.90;;;;;;5016055;28;20045;-84
2023/01/11 08:31:11;;;;;;;13.10;3.35;;;9.80;99.90;;;;;;4999466;28;20049;-84
2023/01/11 08:33:37;;;;;;;15.43;3.45;;;9.80;99.90;;;;;;5015870;28;20421;-84
2023/01/11 08:36:08;;;;;;;19.38;3.85;;;9.70;99.90;;;;;;5015758;28;20075;-84
2023/01/11 08:38:34;;;;;;;18.77;3.35;;;9.70;99.90;;;;;;5015944;28;20046;-85
2023/01/11 08:41:09;;;;;;;16.70;2.83;;;9.70;99.90;;;;;;5016024;28;20041;-85
2023/01/11 08:43:42;;;;;;;16.52;2.90;;;9.70;99.90;;;;;;5036801;28;20088;-83
2023/01/11 08:46:08;;;;;;;9.40;2.45;;;9.60;99.90;;;;;;5016179;28;20046;-84
2023/01/11 08:48:34;;;;;;;12.85;3.10;;;9.60;99.90;;;;;;5016024;28;20465;-83
2023/01/11 08:50:59;;;;;;;9.55;2.30;;;9.50;99.90;;;;;;5033316;28;20113;-84
2023/01/11 08:53:25;;;;;;;10.77;2.45;;;9.40;99.90;;;;;;5033499;28;20033;-84
2023/01/11 08:55:51;;;;;;;13.85;2.88;;;9.40;99.90;;;;;;5015443;28;20091;-83
2023/01/11 08:58:17;;;;;;;7.32;2.03;;;9.30;99.90;;;;;;5015512;28;20034;-84
2023/01/11 09:00:44;;;;;;;11.23;2.57;;;9.30;99.90;;;;;;5015592;28;20294;-84
2023/01/11 09:03:10;;;;;;;8.35;2.30;;;9.60;99.90;;;;;;5015825;28;20041;-83
2023/01/11 09:05:36;;;;;;;9.27;2.00;;;9.20;99.90;;;;;;5015704;28;20052;-84
2023/01/11 09:08:02;;;;;;;11.13;2.73;;;9.20;99.90;;;;;;5033281;28;20044;-84
2023/01/11 09:10:28;;;;;;;12.68;2.20;;;9.20;99.90;;;;;;4999196;28;20128;-83
2023/01/11 09:12:54;;;;;;;9.48;2.17;;;9.40;99.90;;;;;;5033012;28;20049;-84
2023/01/11 09:15:20;;;;;;;10.25;1.88;;;9.10;99.90;;;;;;4999405;28;20398;-84
2023/01/11 09:17:46;;;;;;;11.68;2.22;;;9.20;99.90;;;;;;5015499;28;20041;-84
2023/01/11 09:20:12;;;;;;;12.60;2.63;;;9.10;99.90;;;;;;5033235;28;20041;-84
2023/01/11 09:22:38;;;;;;;12.38;2.38;;;9.10;99.90;;;;;;5032891;28;20033;-84
2023/01/11 09:25:04;;;;;;;10.82;2.88;;;9.50;99.90;;;;;;5015506;28;20048;-84
2023/01/11 09:27:30;;;;;;;7.83;2.33;;;9.10;99.90;;;;;;5033206;28;20044;-83
2023/01/11 09:29:55;;;;;;;15.10;2.65;;;9.10;99.90;;;;;;5033071;28;20037;-84
2023/01/11 09:32:21;;;;;;;11.40;2.67;;;9.10;99.90;;;;;;5033216;28;20121;-85
2023/01/11 09:34:48;;;;;;;15.15;3.47;;;9.10;99.90;;;;;;5017595;28;20048;-84
2023/01/11 09:37:16;;;;;;;;;;;9.10;99.90;;;;;;5019151;28;20413;-84
2023/01/11 09:39:42;;;;;;;15.10;3.33;;;9.10;99.90;;;;;;5002905;28;20266;-84
2023/01/11 09:42:36;;;;;;;16.38;3.17;;;9.10;99.90;;;;;;5037415;28;20034;-83
2023/01/11 09:45:13;;;;;;;16.00;3.13;;;9.10;99.90;;;;;;5039574;28;20452;-84
2023/01/11 09:47:44;;;;;;;9.02;2.88;;;9.10;99.90;;;;;;5020525;28;20037;-83
2023/01/11 09:50:26;;;;;;;12.50;3.10;;;9.10;99.90;;;;;;5019189;28;20037;-83
2023/01/11 09:53:07;;;;;;;15.23;3.15;;;9.10;99.90;;;;;;5003589;28;20133;-83
2023/01/11 09:55:39;;;;;;;11.57;2.83;;;9.00;99.90;;;;;;5019087;28;20105;-84
2023/01/11 09:58:30;;;;;;;15.32;3.35;;;9.00;99.90;;;;;;5018604;28;20069;-83
2023/01/11 10:01:18;;;;;;;20.13;3.53;;;9.00;99.90;;;;;;5018673;28;20037;-83
2023/01/11 10:04:08;;;;;;;14.75;3.25;;;9.00;99.90;;;;;;5002152;28;20049;-83
2023/01/11 10:06:50;;;;;;;20.42;3.03;;;8.90;99.90;;;;;;5018463;28;20128;-83
2023/01/11 10:09:40;;;;;;;15.23;3.00;;;8.90;99.90;;;;;;5002854;28;20053;-83
2023/01/11 10:12:07;;;;;;;14.40;3.05;;;8.90;99.90;;;;;;5018595;28;20037;-84
2023/01/11 10:14:47;;;;;;;14.20;3.78;;;8.90;99.90;;;;;;5018470;28;20041;-83
2023/01/11 10:17:29;;;;;;;17.23;2.70;;;8.90;99.90;;;;;;5018116;28;20041;-84
2023/01/11 10:20:04;;;;;;;15.63;3.33;;;8.90;99.90;;;;;;5018309;28;20041;-83
2023/01/11 10:22:38;;;;;;;12.15;2.92;;;9.00;99.90;;;;;;5036023;28;20037;-83
2023/01/11 10:25:14;;;;;;;10.65;2.78;;;9.10;99.90;;;;;;5018158;28;20486;-83
2023/01/11 10:27:54;;;;;;;16.25;3.47;;;8.90;99.90;;;;;;5035514;28;20048;-83
2023/01/11 10:41:36;;;;;;;11.98;3.33;;;8.90;99.90;;;;;;5017428;28;20057;-84
2023/01/11 10:44:36;;;;;;;18.58;3.03;;;8.90;99.90;;;;;;5001357;28;20045;-84
2023/01/11 10:47:04;;;;;;;14.02;2.90;;;8.80;99.90;;;;;;4985999;28;20085;-83
2023/01/11 10:49:47;;;;;;;14.77;3.08;;;8.90;99.90;;;;;;5037106;28;20448;-83
2023/01/11 10:52:50;;;;;;;13.63;3.03;;;8.90;99.90;;;;;;5017575;28;20472;-83
2023/01/11 10:55:33;;;;;;;13.40;3.35;;;9.00;99.90;;;;;;4921739;28;20045;-84
2023/01/11 10:58:14;;;;;;;18.30;3.78;;;9.10;99.90;;;;;;5017143;28;20498;-83
2023/01/11 11:00:50;;;;;;;13.13;3.40;;;9.20;99.90;;;;;;5017410;28;20049;-84
2023/01/11 11:03:47;;;;;;;11.43;3.35;;;9.20;99.90;;;;;;5000809;28;20041;-84
2023/01/11 11:06:27;;;;;;;14.70;3.47;;;9.30;99.90;;;;;;5035004;28;20041;-83
2023/01/11 11:09:03;;;;;;;10.90;3.00;;;9.40;99.90;;;;;;5017135;28;20041;-83
2023/01/11 11:11:45;;;;;;;22.63;3.85;;;9.40;99.90;;;;;;5017036;28;20389;-83
2023/01/11 11:14:14;;;;;;;17.25;3.17;;;9.50;99.90;;;;;;5017032;28;20049;-83
2023/01/11 11:17:02;;;;;;;16.33;3.60;;;9.50;99.90;;;;;;5017027;28;20492;-83
2023/01/11 11:19:31;;;;;;;17.20;3.63;;;9.50;99.90;;;;;;5034695;28;20040;-83
2023/01/11 11:21:57;;;;;;;14.27;3.50;;;9.60;99.90;;;;;;5034580;28;20080;-83
2023/01/11 11:24:23;;;;;;;14.70;3.42;;;9.60;99.90;;;;;;5017024;28;20545;-83
2023/01/11 11:26:56;;;;;;;9.15;3.22;;;9.70;99.90;;;;;;5016746;28;20050;-83
2023/01/11 11:29:28;;;;;;;15.38;3.92;;;10.00;99.90;;;;;;5016793;28;20041;-82
2023/01/11 11:31:55;;;;;;;11.88;4.05;;;9.70;99.90;;;;;;5000255;28;20068;-84
2023/01/11 11:34:26;;;;;;;16.65;3.72;;;9.80;99.90;;;;;;5034363;28;20095;-84
2023/01/11 11:36:52;;;;;;;11.55;3.30;;;9.80;99.90;;;;;;5016375;28;20535;-82
2023/01/11 11:39:21;;;;;;;11.15;3.67;;;9.80;99.90;;;;;;5017150;28;20046;-84
2023/01/11 11:41:52;;;;;;;10.82;3.70;;;9.70;99.90;;;;;;5000059;28;20056;-83
2023/01/11 11:44:26;;;;;;;18.50;3.80;;;9.80;99.90;;;;;;5000241;28;20037;-83
2023/01/11 11:46:56;;;;;;;19.15;3.90;;;9.80;99.90;;;;;;5034237;28;20037;-83
2023/01/11 11:49:22;;;;;;;11.38;3.13;;;9.80;99.90;;;;;;5035515;28;20536;-84
2023/01/11 11:51:50;;;;;;;13.85;2.90;;;9.90;99.90;;;;;;5035044;28;20037;-83
2023/01/11 11:54:29;;;;;;;13.55;3.17;;;10.80;99.90;;;;;;5016139;28;20049;-83
2023/01/11 11:56:57;;;;;;;14.93;4.53;;;9.90;99.90;;;;;;5015830;28;20069;-84
2023/01/11 11:59:27;;;;;;;12.88;3.60;;;10.00;99.90;;;;;;5016020;28;20048;-83
2023/01/11 12:02:06;;;;;;;12.40;3.00;;;10.00;99.90;;;;;;5034021;28;20120;-83
2023/01/11 12:04:45;;;;;;;13.80;3.33;;;9.90;99.90;;;;;;4999777;28;20041;-83
2023/01/11 12:07:20;;;;;;;15.88;2.80;;;9.90;99.90;;;;;;5033915;28;20045;-83
2023/01/11 12:09:49;;;;;;;15.85;3.00;;;9.90;99.90;;;;;;5033838;28;20068;-84
2023/01/11 12:12:17;;;;;;;13.77;3.33;;;9.80;99.90;;;;;;5033536;28;20374;-83
2023/01/11 12:15:03;;;;;;;9.35;2.60;;;9.80;99.90;;;;;;5015806;28;20047;-83
2023/01/11 12:17:29;;;;;;;14.07;3.03;;;9.80;99.90;;;;;;5033988;28;20437;-83
2023/01/11 12:19:55;;;;;;;6.47;2.73;;;10.20;99.90;;;;;;4999667;28;20029;-83
2023/01/11 12:22:26;;;;;;;11.40;3.00;;;9.60;99.90;;;;;;4999464;28;20096;-83
2023/01/11 12:25:07;;;;;;;13.15;2.90;;;9.50;99.90;;;;;;5033608;28;20052;-83
2023/01/11 12:28:07;;;;;;;10.52;2.90;;;9.40;99.90;;;;;;5033692;28;20120;-83
2023/01/11 12:30:51;;;;;;;11.63;2.70;;;9.40;99.90;;;;;;5015854;28;20042;-84
2023/01/11 12:33:50;;;;;;;15.13;2.67;;;9.30;99.90;;;;;;5001638;28;20049;-83
2023/01/11 12:36:41;;;;;;;16.23;2.85;;;9.30;99.90;;;;;;4999084;28;20050;-83
2023/01/11 12:39:43;;;;;;;13.60;3.10;;;9.40;99.90;;;;;;5033465;28;20511;-83
2023/01/11 12:42:29;;;;;;;9.52;2.50;;;9.30;99.90;;;;;;5016299;28;20041;-83
2023/01/11 12:45:14;;;;;;;17.60;3.35;;;9.30;99.90;;;;;;5033486;28;20432;-84
2023/01/11 12:47:51;;;;;;;11.25;3.17;;;9.30;99.90;;;;;;5015742;28;20053;-84
2023/01/11 12:50:27;;;;;;;16.17;3.05;;;9.30;99.90;;;;;;5015573;28;20041;-83
2023/01/11 12:52:58;;;;;;;14.85;3.00;;;9.30;99.90;;;;;;5036652;28;20037;-84
2023/01/11 12:55:46;;;;;;;13.30;3.00;;;9.30;99.90;;;;;;5015634;28;20055;-84
2023/01/11 12:58:15;;;;;;;16.80;3.05;;;9.30;99.90;;;;;;5015550;28;20052;-83
2023/01/11 13:01:06;;;;;;;19.08;3.42;;;9.40;99.90;;;;;;5015393;28;20038;-83
2023/01/11 13:03:47;;;;;;;13.90;2.72;;;9.50;99.90;;;;;;5015544;28;20071;-84
2023/01/11 13:06:43;;;;;;;22.83;3.58;;;9.50;99.90;;;;;;5033227;28;20116;-83
2023/01/11 13:09:18;;;;;;;15.57;3.90;;;9.50;99.90;;;;;;5016237;28;20045;-83
2023/01/11 13:12:11;;;;;;;13.15;2.72;;;9.60;99.90;;;;;;5036777;28;20040;-83
2023/01/11 13:14:48;;;;;;;14.43;2.75;;;9.50;99.90;;;;;;5019378;28;20402;-83
2023/01/11 13:17:30;;;;;;;16.70;3.83;;;9.40;99.90;;;;;;5019690;28;20120;-82
2023/01/11 13:20:17;;;;;;;16.58;3.08;;;9.40;99.90;;;;;;5019512;28;20077;-83
2023/01/11 13:22:48;;;;;;;20.23;2.90;;;9.30;99.90;;;;;;5019282;28;20069;-83
2023/01/11 13:25:22;;;;;;;13.05;2.67;;;9.40;99.90;;;;;;5037097;28;20115;-84
2023/01/11 13:27:49;;;;;;;13.50;2.63;;;9.30;99.90;;;;;;5019025;28;20040;-83
2023/01/11 13:30:16;;;;;;;;;;;9.30;99.90;;;;;;5019412;28;20377;-84
2023/01/11 13:32:49;;;;;;;17.97;3.90;;;9.40;99.90;;;;;;5019450;28;20285;-83
2023/01/11 13:35:26;;;;;;;10.82;2.58;;;9.50;99.90;;;;;;5019350;28;20048;-83
2023/01/11 13:38:35;;;;;;;12.82;3.03;;;9.60;99.90;;;;;;5037468;28;20121;-82
2023/01/11 13:41:13;;;;;;;17.85;3.33;;;9.70;99.90;;;;;;4905847;29;20114;-83
2023/01/11 13:43:53;;;;;;;17.90;3.60;;;9.70;99.90;;;;;;5012400;28;20056;-83
2023/01/11 13:46:30;;;;;;;16.80;3.67;;;9.70;99.90;;;;;;5002645;28;20079;-83
2023/01/11 13:49:37;;;;;;;14.60;3.58;;;9.70;99.90;;;;;;5002803;28;20045;-83
2023/01/11 13:52:26;;;;;;;16.73;3.03;;;9.70;99.90;;;;;;5002658;28;20049;-82
2023/01/11 13:55:31;;;;;;;15.45;3.03;;;9.70;99.90;;;;;;5039707;28;20130;-83